map of RKW home
RKW - Airport
Location
City:  Rockwood, Tennessee, United States
Name:Rockwood Municipal Airport
ICAO:KRKW
IATA:RKW
FAA LID:RKW

Details
Type:Airport (Airfield)
Use:Public/Civil
Latitude:3555'20"N (35.922333)
Longitude:8441'23"W (-84.689777)
Datum:WGS 1984
Elevation:1664 ft (507 m)
Variation:5.23W (WMM2015 magnetic declination)
-0.07 annual change
Runways:1
Longest:5000 × 100 ft (1524 × 30.5 m), paved

Time
Time Zone:UTC-5 (DST-4)
Local Time:

Weather
METAR:KRKW 120935Z AUTO VRB04G10KT 10SM FEW120 06/M03 A2983 RMK A01

Related Locations
Nearby:
Farthest:MQZ: 11314 mi / 18208 km
Margaret River [Margaret River Airport], WA, AU

Find:

   beyond  
but within

Other Information
Maps:
NOTAMs:
Links:
Sources:

  
flag of United States
flag of Tennessee
  

Sectional Chart

Flight Planning
at skyvector.com

Satellite Image

Google Maps Satellite view

 

Copyright © 2004-2017 Karl L. Swartz. All rights reserved.
The Great Circle Mapper name and logo are trademarks of the Great Circle Mapper.
All other trademarks mentioned herein belong to their respective owners.
Please see credits for attibutions and further copyright information.

  Follow gcmap on Facebook Follow gcmap on Twitter Follow gcmap on Google+ GCmap on LinkedIn

hCard Microformat

Geo Microformat